sensor_id;sensor_type;location;lat;lon;timestamp;P1;durP1;ratioP1;P2;durP2;ratioP2
54899;SDS011;40801;41.924;25.562;2023-02-28T00:01:07;24.75;;;16.92;;
54899;SDS011;40801;41.924;25.562;2023-02-28T00:03:32;21.17;;;14.57;;
54899;SDS011;40801;41.924;25.562;2023-02-28T00:06:00;22.60;;;16.42;;
54899;SDS011;40801;41.924;25.562;2023-02-28T00:08:30;25.80;;;16.95;;
54899;SDS011;40801;41.924;25.562;2023-02-28T00:10:55;29.20;;;17.05;;
54899;SDS011;40801;41.924;25.562;2023-02-28T00:13:21;26.20;;;16.95;;
54899;SDS011;40801;41.924;25.562;2023-02-28T00:15:46;31.63;;;19.23;;
54899;SDS011;40801;41.924;25.562;2023-02-28T00:18:12;24.73;;;16.67;;
54899;SDS011;40801;41.924;25.562;2023-02-28T00:20:38;26.15;;;17.20;;
54899;SDS011;40801;41.924;25.562;2023-02-28T00:23:03;26.55;;;15.77;;
54899;SDS011;40801;41.924;25.562;2023-02-28T00:25:29;24.70;;;15.35;;
54899;SDS011;40801;41.924;25.562;2023-02-28T00:27:54;24.52;;;17.77;;
54899;SDS011;40801;41.924;25.562;2023-02-28T00:30:21;28.65;;;15.60;;
54899;SDS011;40801;41.924;25.562;2023-02-28T00:32:48;22.60;;;16.55;;
54899;SDS011;40801;41.924;25.562;2023-02-28T00:35:14;25.38;;;17.90;;
54899;SDS011;40801;41.924;25.562;2023-02-28T00:37:40;19.65;;;14.23;;
54899;SDS011;40801;41.924;25.562;2023-02-28T00:40:06;20.48;;;13.20;;
54899;SDS011;40801;41.924;25.562;2023-02-28T00:42:35;20.80;;;11.93;;
54899;SDS011;40801;41.924;25.562;2023-02-28T00:45:01;20.25;;;12.48;;
54899;SDS011;40801;41.924;25.562;2023-02-28T00:47:29;23.58;;;13.43;;
54899;SDS011;40801;41.924;25.562;2023-02-28T00:49:54;22.13;;;13.52;;
54899;SDS011;40801;41.924;25.562;2023-02-28T00:52:19;29.30;;;15.40;;
54899;SDS011;40801;41.924;25.562;2023-02-28T00:54:45;21.92;;;14.80;;
54899;SDS011;40801;41.924;25.562;2023-02-28T00:57:10;27.75;;;16.92;;
54899;SDS011;40801;41.924;25.562;2023-02-28T00:59:36;29.17;;;17.83;;
54899;SDS011;40801;41.924;25.562;2023-02-28T01:02:01;21.75;;;15.90;;
54899;SDS011;40801;41.924;25.562;2023-02-28T01:04:26;26.95;;;17.13;;
54899;SDS011;40801;41.924;25.562;2023-02-28T01:06:52;32.50;;;16.92;;
54899;SDS011;40801;41.924;25.562;2023-02-28T01:09:18;21.38;;;15.52;;
54899;SDS011;40801;41.924;25.562;2023-02-28T01:11:44;20.58;;;15.63;;
54899;SDS011;40801;41.924;25.562;2023-02-28T01:14:12;18.13;;;14.50;;
54899;SDS011;40801;41.924;25.562;2023-02-28T01:16:42;19.70;;;15.05;;
54899;SDS011;40801;41.924;25.562;2023-02-28T01:19:08;27.50;;;15.57;;
54899;SDS011;40801;41.924;25.562;2023-02-28T01:21:33;25.42;;;16.75;;
54899;SDS011;40801;41.924;25.562;2023-02-28T01:24:00;21.58;;;16.15;;
54899;SDS011;40801;41.924;25.562;2023-02-28T01:26:26;21.88;;;16.70;;
54899;SDS011;40801;41.924;25.562;2023-02-28T01:28:52;21.90;;;15.00;;
54899;SDS011;40801;41.924;25.562;2023-02-28T01:31:18;16.88;;;13.82;;
54899;SDS011;40801;41.924;25.562;2023-02-28T01:33:45;15.23;;;13.55;;
54899;SDS011;40801;41.924;25.562;2023-02-28T01:36:14;16.10;;;13.23;;
54899;SDS011;40801;41.924;25.562;2023-02-28T01:38:42;17.65;;;14.60;;
54899;SDS011;40801;41.924;25.562;2023-02-28T01:41:07;22.13;;;14.40;;
54899;SDS011;40801;41.924;25.562;2023-02-28T01:46:08;22.63;;;15.93;;
54899;SDS011;40801;41.924;25.562;2023-02-28T01:48:34;27.73;;;16.80;;
54899;SDS011;40801;41.924;25.562;2023-02-28T01:51:17;24.02;;;16.50;;
54899;SDS011;40801;41.924;25.562;2023-02-28T01:54:10;24.20;;;18.05;;
54899;SDS011;40801;41.924;25.562;2023-02-28T01:56:48;26.55;;;18.13;;
54899;SDS011;40801;41.924;25.562;2023-02-28T01:59:21;22.48;;;17.80;;
54899;SDS011;40801;41.924;25.562;2023-02-28T02:01:52;19.60;;;17.33;;
54899;SDS011;40801;41.924;25.562;2023-02-28T02:04:18;18.83;;;15.00;;
54899;SDS011;40801;41.924;25.562;2023-02-28T02:06:46;17.85;;;13.88;;
54899;SDS011;40801;41.924;25.562;2023-02-28T02:09:13;22.67;;;15.25;;
54899;SDS011;40801;41.924;25.562;2023-02-28T02:11:39;20.25;;;15.98;;
54899;SDS011;40801;41.924;25.562;2023-02-28T02:22:04;19.50;;;17.13;;
54899;SDS011;40801;41.924;25.562;2023-02-28T02:36:33;20.83;;;16.27;;
54899;SDS011;40801;41.924;25.562;2023-02-28T02:39:25;18.65;;;13.23;;
54899;SDS011;40801;41.924;25.562;2023-02-28T02:42:20;14.52;;;12.90;;
54899;SDS011;40801;41.924;25.562;2023-02-28T02:44:51;13.95;;;12.52;;
54899;SDS011;40801;41.924;25.562;2023-02-28T02:47:25;14.15;;;10.57;;
54899;SDS011;40801;41.924;25.562;2023-02-28T02:52:22;15.70;;;10.80;;
54899;SDS011;40801;41.924;25.562;2023-02-28T02:54:55;15.45;;;10.02;;
54899;SDS011;40801;41.924;25.562;2023-02-28T02:57:24;14.07;;;10.43;;
54899;SDS011;40801;41.924;25.562;2023-02-28T02:59:55;14.82;;;10.38;;
54899;SDS011;40801;41.924;25.562;2023-02-28T03:02:22;13.35;;;10.07;;
54899;SDS011;40801;41.924;25.562;2023-02-28T03:04:50;12.10;;;9.05;;
54899;SDS011;40801;41.924;25.562;2023-02-28T03:07:18;12.95;;;8.60;;
54899;SDS011;40801;41.924;25.562;2023-02-28T03:09:51;10.07;;;8.27;;
54899;SDS011;40801;41.924;25.562;2023-02-28T03:12:18;12.73;;;8.88;;
54899;SDS011;40801;41.924;25.562;2023-02-28T03:20:01;13.40;;;7.85;;
54899;SDS011;40801;41.924;25.562;2023-02-28T03:25:54;8.50;;;7.20;;
54899;SDS011;40801;41.924;25.562;2023-02-28T03:31:17;12.10;;;8.50;;
54899;SDS011;40801;41.924;25.562;2023-02-28T03:33:50;11.70;;;7.85;;
54899;SDS011;40801;41.924;25.562;2023-02-28T03:36:25;9.32;;;7.53;;
54899;SDS011;40801;41.924;25.562;2023-02-28T03:38:56;8.65;;;7.68;;
54899;SDS011;40801;41.924;25.562;2023-02-28T03:41:23;14.88;;;7.72;;
54899;SDS011;40801;41.924;25.562;2023-02-28T03:44:19;10.18;;;7.32;;
54899;SDS011;40801;41.924;25.562;2023-02-28T03:47:03;11.18;;;7.38;;
54899;SDS011;40801;41.924;25.562;2023-02-28T03:49:42;9.90;;;7.70;;
54899;SDS011;40801;41.924;25.562;2023-02-28T03:52:12;8.40;;;7.10;;
54899;SDS011;40801;41.924;25.562;2023-02-28T03:54:43;7.72;;;7.05;;
54899;SDS011;40801;41.924;25.562;2023-02-28T03:57:15;11.45;;;7.63;;
54899;SDS011;40801;41.924;25.562;2023-02-28T03:59:56;8.55;;;7.70;;
54899;SDS011;40801;41.924;25.562;2023-02-28T04:02:29;8.70;;;7.78;;
54899;SDS011;40801;41.924;25.562;2023-02-28T04:04:54;10.10;;;7.35;;
54899;SDS011;40801;41.924;25.562;2023-02-28T04:07:20;11.48;;;8.50;;
54899;SDS011;40801;41.924;25.562;2023-02-28T04:09:46;9.93;;;7.03;;
54899;SDS011;40801;41.924;25.562;2023-02-28T04:12:11;13.90;;;7.85;;
54899;SDS011;40801;41.924;25.562;2023-02-28T04:14:37;10.68;;;8.00;;
54899;SDS011;40801;41.924;25.562;2023-02-28T04:17:02;8.38;;;7.03;;
54899;SDS011;40801;41.924;25.562;2023-02-28T04:19:27;11.00;;;7.10;;
54899;SDS011;40801;41.924;25.562;2023-02-28T04:21:53;9.70;;;7.68;;
54899;SDS011;40801;41.924;25.562;2023-02-28T04:24:20;9.82;;;8.35;;
54899;SDS011;40801;41.924;25.562;2023-02-28T04:26:48;9.18;;;6.70;;
54899;SDS011;40801;41.924;25.562;2023-02-28T04:29:24;11.25;;;7.50;;
54899;SDS011;40801;41.924;25.562;2023-02-28T04:31:51;9.82;;;8.82;;
54899;SDS011;40801;41.924;25.562;2023-02-28T04:34:22;14.18;;;8.10;;
54899;SDS011;40801;41.924;25.562;2023-02-28T04:36:49;13.18;;;8.68;;
54899;SDS011;40801;41.924;25.562;2023-02-28T04:39:15;10.77;;;9.43;;
54899;SDS011;40801;41.924;25.562;2023-02-28T04:41:43;11.77;;;10.60;;
54899;SDS011;40801;41.924;25.562;2023-02-28T04:44:09;14.88;;;10.80;;
54899;SDS011;40801;41.924;25.562;2023-02-28T04:46:34;12.80;;;10.95;;
54899;SDS011;40801;41.924;25.562;2023-02-28T04:49:00;13.25;;;11.05;;
54899;SDS011;40801;41.924;25.562;2023-02-28T04:51:25;15.63;;;10.82;;
54899;SDS011;40801;41.924;25.562;2023-02-28T04:53:51;19.95;;;12.20;;
54899;SDS011;40801;41.924;25.562;2023-02-28T04:56:17;16.60;;;11.05;;
54899;SDS011;40801;41.924;25.562;2023-02-28T04:58:43;15.38;;;9.95;;
54899;SDS011;40801;41.924;25.562;2023-02-28T05:01:17;14.77;;;10.95;;
54899;SDS011;40801;41.924;25.562;2023-02-28T05:03:48;16.63;;;11.10;;
54899;SDS011;40801;41.924;25.562;2023-02-28T05:06:14;14.52;;;11.82;;
54899;SDS011;40801;41.924;25.562;2023-02-28T05:08:40;13.48;;;11.32;;
54899;SDS011;40801;41.924;25.562;2023-02-28T05:11:07;12.50;;;11.30;;
54899;SDS011;40801;41.924;25.562;2023-02-28T05:13:38;15.07;;;12.30;;
54899;SDS011;40801;41.924;25.562;2023-02-28T05:16:04;13.98;;;11.25;;
54899;SDS011;40801;41.924;25.562;2023-02-28T05:18:29;17.13;;;12.38;;
54899;SDS011;40801;41.924;25.562;2023-02-28T05:20:55;15.30;;;13.70;;
54899;SDS011;40801;41.924;25.562;2023-02-28T05:23:20;18.10;;;14.13;;
54899;SDS011;40801;41.924;25.562;2023-02-28T05:25:47;15.07;;;13.55;;
54899;SDS011;40801;41.924;25.562;2023-02-28T05:28:12;26.73;;;21.35;;
54899;SDS011;40801;41.924;25.562;2023-02-28T05:30:38;17.27;;;13.80;;
54899;SDS011;40801;41.924;25.562;2023-02-28T05:33:03;14.02;;;12.63;;
54899;SDS011;40801;41.924;25.562;2023-02-28T05:35:28;15.07;;;12.45;;
54899;SDS011;40801;41.924;25.562;2023-02-28T05:37:54;13.27;;;11.95;;
54899;SDS011;40801;41.924;25.562;2023-02-28T05:40:19;14.65;;;12.00;;
54899;SDS011;40801;41.924;25.562;2023-02-28T05:42:45;18.80;;;15.98;;
54899;SDS011;40801;41.924;25.562;2023-02-28T05:45:11;13.55;;;12.23;;
54899;SDS011;40801;41.924;25.562;2023-02-28T05:47:37;15.15;;;13.57;;
54899;SDS011;40801;41.924;25.562;2023-02-28T05:50:03;16.58;;;14.82;;
54899;SDS011;40801;41.924;25.562;2023-02-28T05:52:29;19.35;;;15.25;;
54899;SDS011;40801;41.924;25.562;2023-02-28T05:54:55;24.23;;;20.83;;
54899;SDS011;40801;41.924;25.562;2023-02-28T05:57:21;15.75;;;13.50;;
54899;SDS011;40801;41.924;25.562;2023-02-28T05:59:46;22.23;;;16.33;;
54899;SDS011;40801;41.924;25.562;2023-02-28T06:02:12;16.08;;;14.13;;
54899;SDS011;40801;41.924;25.562;2023-02-28T06:04:39;16.00;;;13.73;;
54899;SDS011;40801;41.924;25.562;2023-02-28T06:07:06;18.13;;;14.88;;
54899;SDS011;40801;41.924;25.562;2023-02-28T06:09:32;25.33;;;18.85;;
54899;SDS011;40801;41.924;25.562;2023-02-28T06:11:58;15.07;;;13.52;;
54899;SDS011;40801;41.924;25.562;2023-02-28T06:14:25;16.80;;;13.85;;
54899;SDS011;40801;41.924;25.562;2023-02-28T06:16:50;40.72;;;36.78;;
54899;SDS011;40801;41.924;25.562;2023-02-28T06:19:16;17.63;;;15.85;;
54899;SDS011;40801;41.924;25.562;2023-02-28T06:21:42;31.48;;;24.65;;
54899;SDS011;40801;41.924;25.562;2023-02-28T06:24:08;30.98;;;24.25;;
54899;SDS011;40801;41.924;25.562;2023-02-28T06:26:33;31.48;;;25.15;;
54899;SDS011;40801;41.924;25.562;2023-02-28T06:28:59;44.35;;;30.70;;
54899;SDS011;40801;41.924;25.562;2023-02-28T06:31:26;48.17;;;34.88;;
54899;SDS011;40801;41.924;25.562;2023-02-28T06:33:54;24.27;;;19.05;;
54899;SDS011;40801;41.924;25.562;2023-02-28T06:36:20;66.50;;;43.88;;
54899;SDS011;40801;41.924;25.562;2023-02-28T06:38:46;59.55;;;38.72;;
54899;SDS011;40801;41.924;25.562;2023-02-28T06:41:16;51.95;;;37.25;;
54899;SDS011;40801;41.924;25.562;2023-02-28T06:43:41;20.85;;;18.80;;
54899;SDS011;40801;41.924;25.562;2023-02-28T06:46:08;28.42;;;22.40;;
54899;SDS011;40801;41.924;25.562;2023-02-28T06:48:36;46.72;;;33.03;;
54899;SDS011;40801;41.924;25.562;2023-02-28T06:51:03;27.63;;;21.73;;
54899;SDS011;40801;41.924;25.562;2023-02-28T06:53:29;38.00;;;30.05;;
54899;SDS011;40801;41.924;25.562;2023-02-28T06:55:54;28.63;;;23.67;;
54899;SDS011;40801;41.924;25.562;2023-02-28T06:58:19;21.92;;;19.67;;
54899;SDS011;40801;41.924;25.562;2023-02-28T07:00:45;22.50;;;18.55;;
54899;SDS011;40801;41.924;25.562;2023-02-28T07:05:40;22.40;;;18.60;;
54899;SDS011;40801;41.924;25.562;2023-02-28T07:08:06;25.08;;;21.30;;
54899;SDS011;40801;41.924;25.562;2023-02-28T07:10:36;27.92;;;24.20;;
54899;SDS011;40801;41.924;25.562;2023-02-28T07:13:03;25.35;;;22.63;;
54899;SDS011;40801;41.924;25.562;2023-02-28T07:15:29;26.27;;;21.52;;
54899;SDS011;40801;41.924;25.562;2023-02-28T07:17:55;24.90;;;22.25;;
54899;SDS011;40801;41.924;25.562;2023-02-28T07:20:21;24.92;;;21.10;;
54899;SDS011;40801;41.924;25.562;2023-02-28T07:22:47;23.63;;;20.45;;
54899;SDS011;40801;41.924;25.562;2023-02-28T07:25:20;26.00;;;21.73;;
54899;SDS011;40801;41.924;25.562;2023-02-28T07:27:46;26.42;;;21.20;;
54899;SDS011;40801;41.924;25.562;2023-02-28T07:30:11;26.13;;;22.25;;
54899;SDS011;40801;41.924;25.562;2023-02-28T07:32:37;26.98;;;22.52;;
54899;SDS011;40801;41.924;25.562;2023-02-28T07:35:03;26.08;;;21.48;;
54899;SDS011;40801;41.924;25.562;2023-02-28T07:37:29;27.27;;;22.52;;
54899;SDS011;40801;41.924;25.562;2023-02-28T07:39:56;33.03;;;24.05;;
54899;SDS011;40801;41.924;25.562;2023-02-28T07:42:22;58.00;;;46.05;;
54899;SDS011;40801;41.924;25.562;2023-02-28T07:44:48;45.10;;;39.25;;
54899;SDS011;40801;41.924;25.562;2023-02-28T07:47:13;38.60;;;30.98;;
54899;SDS011;40801;41.924;25.562;2023-02-28T07:49:38;30.92;;;27.30;;
54899;SDS011;40801;41.924;25.562;2023-02-28T07:52:05;35.03;;;29.50;;
54899;SDS011;40801;41.924;25.562;2023-02-28T07:54:31;29.70;;;24.80;;
54899;SDS011;40801;41.924;25.562;2023-02-28T07:56:57;28.67;;;23.98;;
54899;SDS011;40801;41.924;25.562;2023-02-28T07:59:22;29.02;;;23.90;;
54899;SDS011;40801;41.924;25.562;2023-02-28T08:01:48;29.85;;;24.20;;
54899;SDS011;40801;41.924;25.562;2023-02-28T08:04:15;32.60;;;24.20;;
54899;SDS011;40801;41.924;25.562;2023-02-28T08:06:42;30.15;;;22.67;;
54899;SDS011;40801;41.924;25.562;2023-02-28T08:09:07;32.92;;;25.85;;
54899;SDS011;40801;41.924;25.562;2023-02-28T08:11:33;32.55;;;25.10;;
54899;SDS011;40801;41.924;25.562;2023-02-28T08:13:58;35.17;;;24.85;;
54899;SDS011;40801;41.924;25.562;2023-02-28T08:16:23;32.08;;;25.48;;
54899;SDS011;40801;41.924;25.562;2023-02-28T08:18:50;31.45;;;23.65;;
54899;SDS011;40801;41.924;25.562;2023-02-28T08:21:16;31.90;;;25.40;;
54899;SDS011;40801;41.924;25.562;2023-02-28T08:23:41;35.47;;;27.95;;
54899;SDS011;40801;41.924;25.562;2023-02-28T08:26:07;35.35;;;25.92;;
54899;SDS011;40801;41.924;25.562;2023-02-28T08:28:32;40.60;;;27.25;;
54899;SDS011;40801;41.924;25.562;2023-02-28T08:30:58;38.83;;;28.20;;
54899;SDS011;40801;41.924;25.562;2023-02-28T08:33:24;36.72;;;25.73;;
54899;SDS011;40801;41.924;25.562;2023-02-28T08:35:52;36.47;;;27.70;;
54899;SDS011;40801;41.924;25.562;2023-02-28T08:38:21;36.22;;;28.13;;
54899;SDS011;40801;41.924;25.562;2023-02-28T08:40:47;41.75;;;32.92;;
54899;SDS011;40801;41.924;25.562;2023-02-28T08:43:12;33.63;;;27.25;;
54899;SDS011;40801;41.924;25.562;2023-02-28T08:45:38;40.17;;;32.35;;
54899;SDS011;40801;41.924;25.562;2023-02-28T08:48:04;44.55;;;32.33;;
54899;SDS011;40801;41.924;25.562;2023-02-28T08:50:29;38.72;;;32.10;;
54899;SDS011;40801;41.924;25.562;2023-02-28T08:52:54;44.17;;;32.40;;
54899;SDS011;40801;41.924;25.562;2023-02-28T08:55:20;50.47;;;38.78;;
54899;SDS011;40801;41.924;25.562;2023-02-28T08:57:45;52.03;;;37.42;;
54899;SDS011;40801;41.924;25.562;2023-02-28T09:00:11;56.67;;;41.28;;
54899;SDS011;40801;41.924;25.562;2023-02-28T09:02:38;62.53;;;44.60;;
54899;SDS011;40801;41.924;25.562;2023-02-28T09:05:04;73.03;;;46.03;;
54899;SDS011;40801;41.924;25.562;2023-02-28T09:07:30;72.07;;;46.15;;
54899;SDS011;40801;41.924;25.562;2023-02-28T09:09:56;58.58;;;42.10;;
54899;SDS011;40801;41.924;25.562;2023-02-28T09:12:26;70.22;;;43.85;;
54899;SDS011;40801;41.924;25.562;2023-02-28T09:14:52;62.05;;;43.10;;
54899;SDS011;40801;41.924;25.562;2023-02-28T09:17:18;58.55;;;41.22;;
54899;SDS011;40801;41.924;25.562;2023-02-28T09:19:44;66.03;;;43.65;;
54899;SDS011;40801;41.924;25.562;2023-02-28T09:22:12;70.30;;;42.50;;
54899;SDS011;40801;41.924;25.562;2023-02-28T09:24:37;70.22;;;45.83;;
54899;SDS011;40801;41.924;25.562;2023-02-28T09:27:03;96.47;;;60.33;;
54899;SDS011;40801;41.924;25.562;2023-02-28T09:29:29;66.07;;;42.17;;
54899;SDS011;40801;41.924;25.562;2023-02-28T09:31:56;70.72;;;43.70;;
54899;SDS011;40801;41.924;25.562;2023-02-28T09:34:23;68.80;;;44.38;;
54899;SDS011;40801;41.924;25.562;2023-02-28T09:36:49;74.20;;;46.35;;
54899;SDS011;40801;41.924;25.562;2023-02-28T09:39:19;59.72;;;41.58;;
54899;SDS011;40801;41.924;25.562;2023-02-28T09:41:46;52.40;;;40.33;;
54899;SDS011;40801;41.924;25.562;2023-02-28T09:44:37;42.70;;;35.03;;
54899;SDS011;40801;41.924;25.562;2023-02-28T09:50:08;29.90;;;24.45;;
54899;SDS011;40801;41.924;25.562;2023-02-28T09:52:38;29.20;;;26.02;;
54899;SDS011;40801;41.924;25.562;2023-02-28T09:58:02;23.48;;;19.30;;
54899;SDS011;40801;41.924;25.562;2023-02-28T10:00:36;26.95;;;22.52;;
54899;SDS011;40801;41.924;25.562;2023-02-28T10:06:06;24.05;;;21.33;;
54899;SDS011;40801;41.924;25.562;2023-02-28T10:08:35;26.38;;;23.23;;
54899;SDS011;40801;41.924;25.562;2023-02-28T10:11:07;24.00;;;20.42;;
54899;SDS011;40801;41.924;25.562;2023-02-28T10:16:20;24.10;;;20.88;;
54899;SDS011;40801;41.924;25.562;2023-02-28T10:18:49;22.63;;;18.58;;
54899;SDS011;40801;41.924;25.562;2023-02-28T10:21:20;25.23;;;21.70;;
54899;SDS011;40801;41.924;25.562;2023-02-28T10:23:49;33.60;;;29.95;;
54899;SDS011;40801;41.924;25.562;2023-02-28T10:26:17;54.93;;;46.77;;
54899;SDS011;40801;41.924;25.562;2023-02-28T10:28:43;23.50;;;20.58;;
54899;SDS011;40801;41.924;25.562;2023-02-28T10:31:11;23.73;;;21.23;;
54899;SDS011;40801;41.924;25.562;2023-02-28T10:33:47;22.02;;;19.73;;
54899;SDS011;40801;41.924;25.562;2023-02-28T10:36:14;25.00;;;22.10;;
54899;SDS011;40801;41.924;25.562;2023-02-28T10:38:42;26.23;;;23.05;;
54899;SDS011;40801;41.924;25.562;2023-02-28T10:41:09;23.58;;;19.60;;
54899;SDS011;40801;41.924;25.562;2023-02-28T10:43:39;16.88;;;15.15;;
54899;SDS011;40801;41.924;25.562;2023-02-28T10:48:42;15.98;;;14.48;;
54899;SDS011;40801;41.924;25.562;2023-02-28T10:51:11;16.27;;;14.02;;
54899;SDS011;40801;41.924;25.562;2023-02-28T10:53:39;19.83;;;16.60;;
54899;SDS011;40801;41.924;25.562;2023-02-28T11:03:57;22.98;;;20.65;;
54899;SDS011;40801;41.924;25.562;2023-02-28T11:06:29;24.23;;;21.77;;
54899;SDS011;40801;41.924;25.562;2023-02-28T11:11:25;18.90;;;16.70;;
54899;SDS011;40801;41.924;25.562;2023-02-28T11:13:54;24.25;;;19.88;;
54899;SDS011;40801;41.924;25.562;2023-02-28T11:16:22;26.33;;;23.07;;
54899;SDS011;40801;41.924;25.562;2023-02-28T11:18:58;17.70;;;15.80;;
54899;SDS011;40801;41.924;25.562;2023-02-28T11:21:45;21.83;;;19.20;;
54899;SDS011;40801;41.924;25.562;2023-02-28T11:26:49;19.45;;;17.25;;
54899;SDS011;40801;41.924;25.562;2023-02-28T11:29:19;23.98;;;18.13;;
54899;SDS011;40801;41.924;25.562;2023-02-28T11:34:28;19.20;;;16.80;;
54899;SDS011;40801;41.924;25.562;2023-02-28T11:36:55;23.70;;;18.40;;
54899;SDS011;40801;41.924;25.562;2023-02-28T11:39:22;29.92;;;24.02;;
54899;SDS011;40801;41.924;25.562;2023-02-28T11:44:54;20.90;;;18.63;;
54899;SDS011;40801;41.924;25.562;2023-02-28T11:50:19;22.55;;;19.42;;
54899;SDS011;40801;41.924;25.562;2023-02-28T11:55:45;21.45;;;17.88;;
54899;SDS011;40801;41.924;25.562;2023-02-28T12:04:17;38.05;;;34.53;;
54899;SDS011;40801;41.924;25.562;2023-02-28T12:07:14;23.35;;;20.75;;
54899;SDS011;40801;41.924;25.562;2023-02-28T12:09:53;20.27;;;18.20;;
54899;SDS011;40801;41.924;25.562;2023-02-28T12:15:44;20.73;;;18.73;;
54899;SDS011;40801;41.924;25.562;2023-02-28T12:18:26;22.80;;;20.50;;
54899;SDS011;40801;41.924;25.562;2023-02-28T12:21:42;27.27;;;22.17;;
54899;SDS011;40801;41.924;25.562;2023-02-28T12:27:07;19.02;;;17.00;;
54899;SDS011;40801;41.924;25.562;2023-02-28T12:32:26;20.60;;;18.40;;
54899;SDS011;40801;41.924;25.562;2023-02-28T12:38:04;21.67;;;19.63;;
54899;SDS011;40801;41.924;25.562;2023-02-28T12:40:41;24.00;;;21.70;;
54899;SDS011;40801;41.924;25.562;2023-02-28T12:43:09;22.77;;;20.38;;
54899;SDS011;40801;41.924;25.562;2023-02-28T12:45:58;22.73;;;20.42;;
54899;SDS011;40801;41.924;25.562;2023-02-28T12:48:31;19.83;;;17.92;;
54899;SDS011;40801;41.924;25.562;2023-02-28T12:51:04;22.02;;;19.88;;
54899;SDS011;40801;41.924;25.562;2023-02-28T12:53:42;22.95;;;20.63;;
54899;SDS011;40801;41.924;25.562;2023-02-28T12:59:01;27.27;;;24.02;;
54899;SDS011;40801;41.924;25.562;2023-02-28T13:10:21;21.80;;;19.27;;
54899;SDS011;40801;41.924;25.562;2023-02-28T13:12:47;25.35;;;22.60;;
54899;SDS011;40801;41.924;25.562;2023-02-28T13:15:22;33.50;;;28.00;;
54899;SDS011;40801;41.924;25.562;2023-02-28T13:17:51;28.85;;;25.38;;
54899;SDS011;40801;41.924;25.562;2023-02-28T13:20:19;30.42;;;27.40;;
54899;SDS011;40801;41.924;25.562;2023-02-28T13:27:58;26.25;;;23.17;;
54899;SDS011;40801;41.924;25.562;2023-02-28T13:38:34;23.77;;;21.27;;
54899;SDS011;40801;41.924;25.562;2023-02-28T13:49:24;21.58;;;19.38;;
54899;SDS011;40801;41.924;25.562;2023-02-28T13:57:06;21.92;;;18.52;;
54899;SDS011;40801;41.924;25.562;2023-02-28T14:02:56;24.45;;;21.73;;
54899;SDS011;40801;41.924;25.562;2023-02-28T14:05:26;27.90;;;22.35;;
54899;SDS011;40801;41.924;25.562;2023-02-28T14:07:56;48.05;;;43.17;;
54899;SDS011;40801;41.924;25.562;2023-02-28T14:10:30;26.07;;;23.43;;
54899;SDS011;40801;41.924;25.562;2023-02-28T14:20:43;19.15;;;16.70;;
54899;SDS011;40801;41.924;25.562;2023-02-28T14:26:03;23.05;;;20.45;;
54899;SDS011;40801;41.924;25.562;2023-02-28T14:31:25;22.25;;;19.83;;
54899;SDS011;40801;41.924;25.562;2023-02-28T14:36:37;22.02;;;18.52;;
54899;SDS011;40801;41.924;25.562;2023-02-28T14:39:11;21.67;;;19.35;;
54899;SDS011;40801;41.924;25.562;2023-02-28T14:41:40;22.90;;;20.60;;
54899;SDS011;40801;41.924;25.562;2023-02-28T14:44:21;23.38;;;20.90;;
54899;SDS011;40801;41.924;25.562;2023-02-28T14:47:01;27.48;;;24.77;;
54899;SDS011;40801;41.924;25.562;2023-02-28T14:52:13;25.85;;;22.75;;
54899;SDS011;40801;41.924;25.562;2023-02-28T14:54:59;22.52;;;19.45;;
54899;SDS011;40801;41.924;25.562;2023-02-28T15:02:48;28.48;;;24.35;;
54899;SDS011;40801;41.924;25.562;2023-02-28T15:07:41;28.60;;;25.80;;
54899;SDS011;40801;41.924;25.562;2023-02-28T15:12:48;23.02;;;20.52;;
54899;SDS011;40801;41.924;25.562;2023-02-28T15:15:15;24.92;;;22.23;;
54899;SDS011;40801;41.924;25.562;2023-02-28T15:17:42;22.40;;;19.15;;
54899;SDS011;40801;41.924;25.562;2023-02-28T15:20:12;26.40;;;21.95;;
54899;SDS011;40801;41.924;25.562;2023-02-28T15:22:41;28.58;;;24.27;;
54899;SDS011;40801;41.924;25.562;2023-02-28T15:25:07;29.17;;;26.08;;
54899;SDS011;40801;41.924;25.562;2023-02-28T15:27:40;29.77;;;24.98;;
54899;SDS011;40801;41.924;25.562;2023-02-28T15:30:17;30.88;;;27.60;;
54899;SDS011;40801;41.924;25.562;2023-02-28T15:32:47;29.48;;;24.08;;
54899;SDS011;40801;41.924;25.562;2023-02-28T15:35:29;26.38;;;22.20;;
54899;SDS011;40801;41.924;25.562;2023-02-28T15:37:57;26.60;;;23.83;;
54899;SDS011;40801;41.924;25.562;2023-02-28T15:43:06;30.05;;;26.10;;
54899;SDS011;40801;41.924;25.562;2023-02-28T15:45:41;32.63;;;27.33;;
54899;SDS011;40801;41.924;25.562;2023-02-28T15:48:21;30.38;;;27.38;;
54899;SDS011;40801;41.924;25.562;2023-02-28T15:50:53;29.63;;;26.08;;
54899;SDS011;40801;41.924;25.562;2023-02-28T15:53:30;26.02;;;23.45;;
54899;SDS011;40801;41.924;25.562;2023-02-28T15:56:04;20.40;;;18.35;;
54899;SDS011;40801;41.924;25.562;2023-02-28T15:58:47;22.63;;;20.15;;
54899;SDS011;40801;41.924;25.562;2023-02-28T16:03:43;24.88;;;22.20;;
54899;SDS011;40801;41.924;25.562;2023-02-28T16:08:58;19.98;;;17.88;;
54899;SDS011;40801;41.924;25.562;2023-02-28T16:11:23;23.98;;;21.40;;
54899;SDS011;40801;41.924;25.562;2023-02-28T16:13:49;20.17;;;18.25;;
54899;SDS011;40801;41.924;25.562;2023-02-28T16:16:23;21.67;;;19.50;;
54899;SDS011;40801;41.924;25.562;2023-02-28T16:18:50;21.30;;;19.10;;
54899;SDS011;40801;41.924;25.562;2023-02-28T16:21:16;33.30;;;29.65;;
54899;SDS011;40801;41.924;25.562;2023-02-28T16:23:42;21.50;;;19.35;;
54899;SDS011;40801;41.924;25.562;2023-02-28T16:26:07;24.02;;;20.40;;
54899;SDS011;40801;41.924;25.562;2023-02-28T16:28:40;19.33;;;17.45;;
54899;SDS011;40801;41.924;25.562;2023-02-28T16:31:06;22.48;;;20.10;;
54899;SDS011;40801;41.924;25.562;2023-02-28T16:33:32;23.42;;;20.90;;
54899;SDS011;40801;41.924;25.562;2023-02-28T16:35:58;30.30;;;27.52;;
54899;SDS011;40801;41.924;25.562;2023-02-28T16:38:25;25.33;;;22.85;;
54899;SDS011;40801;41.924;25.562;2023-02-28T16:40:51;27.73;;;24.88;;
54899;SDS011;40801;41.924;25.562;2023-02-28T16:43:18;19.35;;;17.52;;
54899;SDS011;40801;41.924;25.562;2023-02-28T16:45:47;15.32;;;13.82;;
54899;SDS011;40801;41.924;25.562;2023-02-28T16:48:15;14.80;;;13.40;;
54899;SDS011;40801;41.924;25.562;2023-02-28T16:50:41;15.13;;;13.60;;
54899;SDS011;40801;41.924;25.562;2023-02-28T16:53:09;20.95;;;18.35;;
54899;SDS011;40801;41.924;25.562;2023-02-28T16:55:35;26.77;;;24.17;;
54899;SDS011;40801;41.924;25.562;2023-02-28T16:58:02;79.65;;;61.13;;
54899;SDS011;40801;41.924;25.562;2023-02-28T17:00:29;11.50;;;10.50;;
54899;SDS011;40801;41.924;25.562;2023-02-28T17:02:57;29.00;;;25.98;;
54899;SDS011;40801;41.924;25.562;2023-02-28T17:05:24;18.92;;;15.77;;
54899;SDS011;40801;41.924;25.562;2023-02-28T17:07:50;19.50;;;17.50;;
54899;SDS011;40801;41.924;25.562;2023-02-28T17:10:26;11.45;;;10.45;;
54899;SDS011;40801;41.924;25.562;2023-02-28T17:12:52;17.65;;;16.02;;
54899;SDS011;40801;41.924;25.562;2023-02-28T17:15:18;18.67;;;16.95;;